sensor_id;sensor_type;location;lat;lon;timestamp;P1;durP1;ratioP1;P2;durP2;ratioP2
6376;SDS011;3221;48.858;10.128;2023-05-20T00:02:12;4.93;;;4.47;;
6376;SDS011;3221;48.858;10.128;2023-05-20T00:04:39;4.43;;;4.00;;
6376;SDS011;3221;48.858;10.128;2023-05-20T00:07:07;4.77;;;4.30;;
6376;SDS011;3221;48.858;10.128;2023-05-20T00:09:34;6.07;;;4.50;;
6376;SDS011;3221;48.858;10.128;2023-05-20T00:12:03;4.90;;;4.40;;
6376;SDS011;3221;48.858;10.128;2023-05-20T00:14:30;5.83;;;5.03;;
6376;SDS011;3221;48.858;10.128;2023-05-20T00:16:57;5.00;;;4.60;;
6376;SDS011;3221;48.858;10.128;2023-05-20T00:19:24;6.57;;;4.87;;
6376;SDS011;3221;48.858;10.128;2023-05-20T00:21:51;5.07;;;4.57;;
6376;SDS011;3221;48.858;10.128;2023-05-20T00:24:18;5.13;;;4.50;;
6376;SDS011;3221;48.858;10.128;2023-05-20T00:26:45;4.83;;;4.23;;
6376;SDS011;3221;48.858;10.128;2023-05-20T00:29:11;8.60;;;4.77;;
6376;SDS011;3221;48.858;10.128;2023-05-20T00:31:38;6.30;;;4.80;;
6376;SDS011;3221;48.858;10.128;2023-05-20T00:34:05;5.30;;;4.43;;
6376;SDS011;3221;48.858;10.128;2023-05-20T00:36:32;5.33;;;4.80;;
6376;SDS011;3221;48.858;10.128;2023-05-20T00:39:00;5.50;;;4.77;;
6376;SDS011;3221;48.858;10.128;2023-05-20T00:41:27;5.33;;;4.70;;
6376;SDS011;3221;48.858;10.128;2023-05-20T00:43:54;6.70;;;5.30;;
6376;SDS011;3221;48.858;10.128;2023-05-20T00:46:25;4.97;;;4.43;;
6376;SDS011;3221;48.858;10.128;2023-05-20T00:48:53;5.40;;;4.90;;
6376;SDS011;3221;48.858;10.128;2023-05-20T00:51:20;5.20;;;4.70;;
6376;SDS011;3221;48.858;10.128;2023-05-20T00:53:47;6.63;;;4.80;;
6376;SDS011;3221;48.858;10.128;2023-05-20T00:56:15;5.77;;;4.87;;
6376;SDS011;3221;48.858;10.128;2023-05-20T00:58:43;7.47;;;6.87;;
6376;SDS011;3221;48.858;10.128;2023-05-20T01:01:09;5.53;;;4.93;;
6376;SDS011;3221;48.858;10.128;2023-05-20T01:03:37;5.20;;;4.70;;
6376;SDS011;3221;48.858;10.128;2023-05-20T01:06:04;6.03;;;4.40;;
6376;SDS011;3221;48.858;10.128;2023-05-20T01:08:31;5.30;;;4.80;;
6376;SDS011;3221;48.858;10.128;2023-05-20T01:13:36;5.67;;;4.60;;
6376;SDS011;3221;48.858;10.128;2023-05-20T01:16:08;5.43;;;4.93;;
6376;SDS011;3221;48.858;10.128;2023-05-20T01:18:37;5.37;;;4.87;;
6376;SDS011;3221;48.858;10.128;2023-05-20T01:21:06;5.97;;;5.17;;
6376;SDS011;3221;48.858;10.128;2023-05-20T01:23:37;6.10;;;5.50;;
6376;SDS011;3221;48.858;10.128;2023-05-20T01:26:07;5.70;;;5.00;;
6376;SDS011;3221;48.858;10.128;2023-05-20T01:28:35;6.33;;;4.90;;
6376;SDS011;3221;48.858;10.128;2023-05-20T01:31:04;6.80;;;5.37;;
6376;SDS011;3221;48.858;10.128;2023-05-20T01:33:39;6.23;;;5.40;;
6376;SDS011;3221;48.858;10.128;2023-05-20T01:36:08;6.53;;;5.20;;
6376;SDS011;3221;48.858;10.128;2023-05-20T01:38:36;6.53;;;5.57;;
6376;SDS011;3221;48.858;10.128;2023-05-20T01:41:04;7.10;;;5.47;;
6376;SDS011;3221;48.858;10.128;2023-05-20T01:43:32;7.60;;;5.20;;
6376;SDS011;3221;48.858;10.128;2023-05-20T01:46:00;7.80;;;5.57;;
6376;SDS011;3221;48.858;10.128;2023-05-20T01:48:28;6.67;;;5.07;;
6376;SDS011;3221;48.858;10.128;2023-05-20T01:50:55;6.10;;;5.50;;
6376;SDS011;3221;48.858;10.128;2023-05-20T01:53:22;6.13;;;5.43;;
6376;SDS011;3221;48.858;10.128;2023-05-20T01:55:49;9.23;;;5.30;;
6376;SDS011;3221;48.858;10.128;2023-05-20T01:58:16;5.43;;;4.93;;
6376;SDS011;3221;48.858;10.128;2023-05-20T02:00:43;7.43;;;5.60;;
6376;SDS011;3221;48.858;10.128;2023-05-20T02:03:10;6.43;;;5.40;;
6376;SDS011;3221;48.858;10.128;2023-05-20T02:05:37;7.23;;;5.20;;
6376;SDS011;3221;48.858;10.128;2023-05-20T02:08:04;6.47;;;5.70;;
6376;SDS011;3221;48.858;10.128;2023-05-20T02:10:31;6.20;;;5.60;;
6376;SDS011;3221;48.858;10.128;2023-05-20T02:12:58;7.00;;;5.90;;
6376;SDS011;3221;48.858;10.128;2023-05-20T02:15:25;6.80;;;6.10;;
6376;SDS011;3221;48.858;10.128;2023-05-20T02:17:52;11.00;;;6.00;;
6376;SDS011;3221;48.858;10.128;2023-05-20T02:20:21;7.47;;;5.87;;
6376;SDS011;3221;48.858;10.128;2023-05-20T02:22:48;8.40;;;6.03;;
6376;SDS011;3221;48.858;10.128;2023-05-20T02:25:15;6.60;;;5.70;;
6376;SDS011;3221;48.858;10.128;2023-05-20T02:27:42;6.67;;;5.93;;
6376;SDS011;3221;48.858;10.128;2023-05-20T02:30:09;6.83;;;6.10;;
6376;SDS011;3221;48.858;10.128;2023-05-20T02:32:36;6.40;;;5.70;;
6376;SDS011;3221;48.858;10.128;2023-05-20T02:35:03;6.10;;;5.50;;
6376;SDS011;3221;48.858;10.128;2023-05-20T02:37:31;6.97;;;6.03;;
6376;SDS011;3221;48.858;10.128;2023-05-20T02:39:58;7.67;;;5.57;;
6376;SDS011;3221;48.858;10.128;2023-05-20T02:42:25;6.83;;;6.03;;
6376;SDS011;3221;48.858;10.128;2023-05-20T02:44:51;8.47;;;6.23;;
6376;SDS011;3221;48.858;10.128;2023-05-20T02:47:21;7.70;;;6.07;;
6376;SDS011;3221;48.858;10.128;2023-05-20T02:49:48;6.53;;;5.90;;
6376;SDS011;3221;48.858;10.128;2023-05-20T02:52:15;6.60;;;5.90;;
6376;SDS011;3221;48.858;10.128;2023-05-20T02:54:42;6.63;;;5.93;;
6376;SDS011;3221;48.858;10.128;2023-05-20T02:57:09;6.50;;;5.77;;
6376;SDS011;3221;48.858;10.128;2023-05-20T02:59:36;7.13;;;6.20;;
6376;SDS011;3221;48.858;10.128;2023-05-20T03:02:03;7.20;;;6.50;;
6376;SDS011;3221;48.858;10.128;2023-05-20T03:04:30;6.53;;;5.93;;
6376;SDS011;3221;48.858;10.128;2023-05-20T03:06:57;6.70;;;6.00;;
6376;SDS011;3221;48.858;10.128;2023-05-20T03:09:24;6.80;;;6.10;;
6376;SDS011;3221;48.858;10.128;2023-05-20T03:11:51;6.10;;;5.50;;
6376;SDS011;3221;48.858;10.128;2023-05-20T03:14:18;7.40;;;6.70;;
6376;SDS011;3221;48.858;10.128;2023-05-20T03:16:45;7.73;;;6.80;;
6376;SDS011;3221;48.858;10.128;2023-05-20T03:19:12;7.37;;;6.63;;
6376;SDS011;3221;48.858;10.128;2023-05-20T03:21:39;7.00;;;6.30;;
6376;SDS011;3221;48.858;10.128;2023-05-20T03:24:06;9.63;;;6.67;;
6376;SDS011;3221;48.858;10.128;2023-05-20T03:26:34;6.93;;;6.17;;
6376;SDS011;3221;48.858;10.128;2023-05-20T03:29:03;9.13;;;6.80;;
6376;SDS011;3221;48.858;10.128;2023-05-20T03:31:31;7.00;;;6.30;;
6376;SDS011;3221;48.858;10.128;2023-05-20T03:33:58;7.97;;;6.43;;
6376;SDS011;3221;48.858;10.128;2023-05-20T03:36:25;8.43;;;6.40;;
6376;SDS011;3221;48.858;10.128;2023-05-20T03:38:52;7.57;;;6.80;;
6376;SDS011;3221;48.858;10.128;2023-05-20T03:41:19;6.93;;;6.23;;
6376;SDS011;3221;48.858;10.128;2023-05-20T03:43:46;8.73;;;6.53;;
6376;SDS011;3221;48.858;10.128;2023-05-20T03:46:14;7.60;;;6.90;;
6376;SDS011;3221;48.858;10.128;2023-05-20T03:48:41;8.33;;;6.93;;
6376;SDS011;3221;48.858;10.128;2023-05-20T03:51:08;7.83;;;6.80;;
6376;SDS011;3221;48.858;10.128;2023-05-20T03:53:35;7.73;;;6.80;;
6376;SDS011;3221;48.858;10.128;2023-05-20T03:56:02;7.60;;;6.70;;
6376;SDS011;3221;48.858;10.128;2023-05-20T03:58:29;7.87;;;6.50;;
6376;SDS011;3221;48.858;10.128;2023-05-20T04:00:56;7.77;;;6.97;;
6376;SDS011;3221;48.858;10.128;2023-05-20T04:03:24;8.03;;;6.50;;
6376;SDS011;3221;48.858;10.128;2023-05-20T04:05:51;8.50;;;7.53;;
6376;SDS011;3221;48.858;10.128;2023-05-20T04:08:20;7.53;;;6.77;;
6376;SDS011;3221;48.858;10.128;2023-05-20T04:10:47;8.30;;;6.87;;
6376;SDS011;3221;48.858;10.128;2023-05-20T04:13:14;7.93;;;6.73;;
6376;SDS011;3221;48.858;10.128;2023-05-20T04:15:41;9.87;;;7.23;;
6376;SDS011;3221;48.858;10.128;2023-05-20T04:18:10;7.73;;;6.93;;
6376;SDS011;3221;48.858;10.128;2023-05-20T04:20:39;7.03;;;6.33;;
6376;SDS011;3221;48.858;10.128;2023-05-20T04:23:11;7.03;;;6.33;;
6376;SDS011;3221;48.858;10.128;2023-05-20T04:25:38;8.07;;;7.27;;
6376;SDS011;3221;48.858;10.128;2023-05-20T04:28:07;7.97;;;6.67;;
6376;SDS011;3221;48.858;10.128;2023-05-20T04:30:36;7.50;;;6.80;;
6376;SDS011;3221;48.858;10.128;2023-05-20T04:33:03;9.27;;;7.13;;
6376;SDS011;3221;48.858;10.128;2023-05-20T04:35:30;8.03;;;7.10;;
6376;SDS011;3221;48.858;10.128;2023-05-20T04:38:02;8.00;;;7.20;;
6376;SDS011;3221;48.858;10.128;2023-05-20T04:40:29;7.57;;;6.77;;
6376;SDS011;3221;48.858;10.128;2023-05-20T04:43:01;7.60;;;6.80;;
6376;SDS011;3221;48.858;10.128;2023-05-20T04:45:29;7.40;;;6.60;;
6376;SDS011;3221;48.858;10.128;2023-05-20T04:47:57;8.10;;;7.00;;
6376;SDS011;3221;48.858;10.128;2023-05-20T04:50:24;8.50;;;7.60;;
6376;SDS011;3221;48.858;10.128;2023-05-20T04:52:51;8.40;;;7.50;;
6376;SDS011;3221;48.858;10.128;2023-05-20T04:55:18;8.47;;;7.17;;
6376;SDS011;3221;48.858;10.128;2023-05-20T04:57:46;9.13;;;7.13;;
6376;SDS011;3221;48.858;10.128;2023-05-20T05:00:14;8.50;;;7.47;;
6376;SDS011;3221;48.858;10.128;2023-05-20T05:02:41;8.70;;;7.47;;
6376;SDS011;3221;48.858;10.128;2023-05-20T05:05:09;9.00;;;7.67;;
6376;SDS011;3221;48.858;10.128;2023-05-20T05:07:37;9.37;;;7.63;;
6376;SDS011;3221;48.858;10.128;2023-05-20T05:10:04;9.00;;;7.70;;
6376;SDS011;3221;48.858;10.128;2023-05-20T05:12:31;7.40;;;6.67;;
6376;SDS011;3221;48.858;10.128;2023-05-20T05:14:58;8.13;;;7.33;;
6376;SDS011;3221;48.858;10.128;2023-05-20T05:17:26;8.17;;;7.33;;
6376;SDS011;3221;48.858;10.128;2023-05-20T05:19:55;8.77;;;7.37;;
6376;SDS011;3221;48.858;10.128;2023-05-20T05:22:23;11.10;;;8.40;;
6376;SDS011;3221;48.858;10.128;2023-05-20T05:24:50;9.90;;;8.03;;
6376;SDS011;3221;48.858;10.128;2023-05-20T05:27:17;9.10;;;7.73;;
6376;SDS011;3221;48.858;10.128;2023-05-20T05:29:44;8.60;;;7.30;;
6376;SDS011;3221;48.858;10.128;2023-05-20T05:32:11;9.30;;;8.30;;
6376;SDS011;3221;48.858;10.128;2023-05-20T05:34:38;9.17;;;7.40;;
6376;SDS011;3221;48.858;10.128;2023-05-20T05:37:06;9.83;;;7.93;;
6376;SDS011;3221;48.858;10.128;2023-05-20T05:39:33;9.67;;;8.30;;
6376;SDS011;3221;48.858;10.128;2023-05-20T05:42:03;10.20;;;8.53;;
6376;SDS011;3221;48.858;10.128;2023-05-20T05:44:31;12.20;;;8.60;;
6376;SDS011;3221;48.858;10.128;2023-05-20T05:46:58;9.37;;;8.33;;
6376;SDS011;3221;48.858;10.128;2023-05-20T05:49:25;10.00;;;8.60;;
6376;SDS011;3221;48.858;10.128;2023-05-20T05:51:53;9.37;;;8.17;;
6376;SDS011;3221;48.858;10.128;2023-05-20T05:54:20;8.93;;;8.00;;
6376;SDS011;3221;48.858;10.128;2023-05-20T05:56:49;9.97;;;8.97;;
6376;SDS011;3221;48.858;10.128;2023-05-20T05:59:17;9.37;;;7.97;;
6376;SDS011;3221;48.858;10.128;2023-05-20T06:01:45;10.67;;;7.80;;
6376;SDS011;3221;48.858;10.128;2023-05-20T06:04:13;9.80;;;8.00;;
6376;SDS011;3221;48.858;10.128;2023-05-20T06:06:40;8.60;;;7.47;;
6376;SDS011;3221;48.858;10.128;2023-05-20T06:09:07;9.67;;;8.07;;
6376;SDS011;3221;48.858;10.128;2023-05-20T06:11:34;9.43;;;8.27;;
6376;SDS011;3221;48.858;10.128;2023-05-20T06:14:01;9.53;;;8.30;;
6376;SDS011;3221;48.858;10.128;2023-05-20T06:16:29;10.53;;;8.33;;
6376;SDS011;3221;48.858;10.128;2023-05-20T06:18:58;11.60;;;8.83;;
6376;SDS011;3221;48.858;10.128;2023-05-20T06:21:30;11.23;;;9.20;;
6376;SDS011;3221;48.858;10.128;2023-05-20T06:23:58;10.37;;;8.40;;
6376;SDS011;3221;48.858;10.128;2023-05-20T06:26:25;9.77;;;7.90;;
6376;SDS011;3221;48.858;10.128;2023-05-20T06:28:53;8.90;;;8.00;;
6376;SDS011;3221;48.858;10.128;2023-05-20T06:31:21;9.27;;;8.03;;
6376;SDS011;3221;48.858;10.128;2023-05-20T06:33:49;9.43;;;8.40;;
6376;SDS011;3221;48.858;10.128;2023-05-20T06:36:16;10.10;;;8.07;;
6376;SDS011;3221;48.858;10.128;2023-05-20T06:38:43;9.47;;;8.43;;
6376;SDS011;3221;48.858;10.128;2023-05-20T06:41:13;9.43;;;8.13;;
6376;SDS011;3221;48.858;10.128;2023-05-20T06:43:39;10.23;;;8.40;;
6376;SDS011;3221;48.858;10.128;2023-05-20T06:46:29;11.63;;;8.90;;
6376;SDS011;3221;48.858;10.128;2023-05-20T06:49:03;8.97;;;7.90;;
6376;SDS011;3221;48.858;10.128;2023-05-20T06:51:30;8.77;;;7.80;;
6376;SDS011;3221;48.858;10.128;2023-05-20T06:53:58;11.03;;;8.63;;
6376;SDS011;3221;48.858;10.128;2023-05-20T06:56:25;8.77;;;7.70;;
6376;SDS011;3221;48.858;10.128;2023-05-20T06:58:53;8.83;;;7.87;;
6376;SDS011;3221;48.858;10.128;2023-05-20T07:01:20;10.30;;;9.20;;
6376;SDS011;3221;48.858;10.128;2023-05-20T07:03:48;9.97;;;8.23;;
6376;SDS011;3221;48.858;10.128;2023-05-20T07:06:15;12.60;;;8.30;;
6376;SDS011;3221;48.858;10.128;2023-05-20T07:08:42;9.37;;;8.37;;
6376;SDS011;3221;48.858;10.128;2023-05-20T07:11:10;9.47;;;8.10;;
6376;SDS011;3221;48.858;10.128;2023-05-20T07:13:37;9.93;;;8.47;;
6376;SDS011;3221;48.858;10.128;2023-05-20T07:16:05;10.50;;;8.20;;
6376;SDS011;3221;48.858;10.128;2023-05-20T07:18:33;9.07;;;7.83;;
6376;SDS011;3221;48.858;10.128;2023-05-20T07:21:01;11.97;;;8.67;;
6376;SDS011;3221;48.858;10.128;2023-05-20T07:23:57;10.87;;;9.07;;
6376;SDS011;3221;48.858;10.128;2023-05-20T07:26:24;12.73;;;8.83;;
6376;SDS011;3221;48.858;10.128;2023-05-20T07:28:51;12.33;;;8.77;;
6376;SDS011;3221;48.858;10.128;2023-05-20T07:31:18;9.63;;;8.47;;
6376;SDS011;3221;48.858;10.128;2023-05-20T07:33:46;11.03;;;8.73;;
6376;SDS011;3221;48.858;10.128;2023-05-20T07:36:13;10.90;;;8.53;;
6376;SDS011;3221;48.858;10.128;2023-05-20T07:38:44;10.30;;;9.20;;
6376;SDS011;3221;48.858;10.128;2023-05-20T07:41:29;8.83;;;7.93;;
6376;SDS011;3221;48.858;10.128;2023-05-20T07:43:56;9.37;;;8.07;;
6376;SDS011;3221;48.858;10.128;2023-05-20T07:46:23;9.07;;;8.17;;
6376;SDS011;3221;48.858;10.128;2023-05-20T07:48:51;10.17;;;8.23;;
6376;SDS011;3221;48.858;10.128;2023-05-20T07:51:18;9.80;;;7.87;;
6376;SDS011;3221;48.858;10.128;2023-05-20T07:53:44;8.93;;;7.97;;
6376;SDS011;3221;48.858;10.128;2023-05-20T07:56:11;9.47;;;8.37;;
6376;SDS011;3221;48.858;10.128;2023-05-20T07:58:42;9.57;;;8.10;;
6376;SDS011;3221;48.858;10.128;2023-05-20T08:01:18;9.80;;;8.07;;
6376;SDS011;3221;48.858;10.128;2023-05-20T08:03:45;9.47;;;8.17;;
6376;SDS011;3221;48.858;10.128;2023-05-20T08:06:15;9.47;;;8.23;;
6376;SDS011;3221;48.858;10.128;2023-05-20T08:08:44;9.37;;;8.30;;
6376;SDS011;3221;48.858;10.128;2023-05-20T08:11:17;9.40;;;8.33;;
6376;SDS011;3221;48.858;10.128;2023-05-20T08:13:45;11.47;;;8.47;;
6376;SDS011;3221;48.858;10.128;2023-05-20T08:16:13;9.70;;;7.87;;
6376;SDS011;3221;48.858;10.128;2023-05-20T08:18:42;9.20;;;8.07;;
6376;SDS011;3221;48.858;10.128;2023-05-20T08:21:11;10.90;;;8.67;;
6376;SDS011;3221;48.858;10.128;2023-05-20T08:23:39;11.87;;;8.13;;
6376;SDS011;3221;48.858;10.128;2023-05-20T08:26:06;8.90;;;8.00;;
6376;SDS011;3221;48.858;10.128;2023-05-20T08:28:36;9.40;;;7.40;;
6376;SDS011;3221;48.858;10.128;2023-05-20T08:31:03;9.07;;;7.70;;
6376;SDS011;3221;48.858;10.128;2023-05-20T08:33:31;10.43;;;7.80;;
6376;SDS011;3221;48.858;10.128;2023-05-20T08:35:58;8.37;;;7.40;;
6376;SDS011;3221;48.858;10.128;2023-05-20T08:38:26;11.20;;;8.03;;
6376;SDS011;3221;48.858;10.128;2023-05-20T08:40:55;8.57;;;7.67;;
6376;SDS011;3221;48.858;10.128;2023-05-20T08:43:23;9.53;;;7.67;;
6376;SDS011;3221;48.858;10.128;2023-05-20T08:45:51;9.67;;;7.73;;
6376;SDS011;3221;48.858;10.128;2023-05-20T08:48:21;9.53;;;7.23;;
6376;SDS011;3221;48.858;10.128;2023-05-20T08:50:49;9.40;;;7.50;;
6376;SDS011;3221;48.858;10.128;2023-05-20T08:53:17;11.27;;;7.90;;
6376;SDS011;3221;48.858;10.128;2023-05-20T08:55:48;8.43;;;7.53;;
6376;SDS011;3221;48.858;10.128;2023-05-20T08:58:20;9.20;;;7.90;;
6376;SDS011;3221;48.858;10.128;2023-05-20T09:00:49;8.57;;;7.03;;
6376;SDS011;3221;48.858;10.128;2023-05-20T09:03:18;12.23;;;8.00;;
6376;SDS011;3221;48.858;10.128;2023-05-20T09:05:49;11.50;;;7.70;;
6376;SDS011;3221;48.858;10.128;2023-05-20T09:08:16;9.87;;;7.93;;
6376;SDS011;3221;48.858;10.128;2023-05-20T09:10:43;9.63;;;8.23;;
6376;SDS011;3221;48.858;10.128;2023-05-20T09:13:10;9.23;;;7.37;;
6376;SDS011;3221;48.858;10.128;2023-05-20T09:15:37;10.40;;;8.40;;
6376;SDS011;3221;48.858;10.128;2023-05-20T09:18:05;8.17;;;7.37;;
6376;SDS011;3221;48.858;10.128;2023-05-20T09:20:34;9.87;;;7.50;;
6376;SDS011;3221;48.858;10.128;2023-05-20T09:23:07;8.77;;;7.77;;
6376;SDS011;3221;48.858;10.128;2023-05-20T09:25:35;15.93;;;7.33;;
6376;SDS011;3221;48.858;10.128;2023-05-20T09:28:04;11.60;;;6.80;;
6376;SDS011;3221;48.858;10.128;2023-05-20T09:30:33;9.90;;;6.80;;
6376;SDS011;3221;48.858;10.128;2023-05-20T09:33:00;8.67;;;7.23;;
6376;SDS011;3221;48.858;10.128;2023-05-20T09:35:33;9.17;;;7.30;;
6376;SDS011;3221;48.858;10.128;2023-05-20T09:38:03;9.53;;;7.60;;
6376;SDS011;3221;48.858;10.128;2023-05-20T09:40:32;7.30;;;6.50;;
6376;SDS011;3221;48.858;10.128;2023-05-20T09:43:04;8.50;;;7.00;;
6376;SDS011;3221;48.858;10.128;2023-05-20T09:45:33;9.33;;;6.87;;
6376;SDS011;3221;48.858;10.128;2023-05-20T09:48:00;7.53;;;6.83;;
6376;SDS011;3221;48.858;10.128;2023-05-20T09:50:29;9.03;;;6.57;;
6376;SDS011;3221;48.858;10.128;2023-05-20T09:53:00;15.00;;;6.23;;
6376;SDS011;3221;48.858;10.128;2023-05-20T09:55:28;8.20;;;6.03;;
6376;SDS011;3221;48.858;10.128;2023-05-20T09:57:56;7.07;;;5.93;;
6376;SDS011;3221;48.858;10.128;2023-05-20T10:00:27;6.77;;;6.03;;
6376;SDS011;3221;48.858;10.128;2023-05-20T10:02:54;6.93;;;6.27;;
6376;SDS011;3221;48.858;10.128;2023-05-20T10:05:34;8.77;;;6.90;;
6376;SDS011;3221;48.858;10.128;2023-05-20T10:11:04;6.77;;;6.07;;
6376;SDS011;3221;48.858;10.128;2023-05-20T10:17:05;6.50;;;5.80;;
6376;SDS011;3221;48.858;10.128;2023-05-20T10:19:42;6.03;;;5.40;;
6376;SDS011;3221;48.858;10.128;2023-05-20T10:22:10;6.00;;;5.50;;
6376;SDS011;3221;48.858;10.128;2023-05-20T10:24:38;8.77;;;6.53;;
6376;SDS011;3221;48.858;10.128;2023-05-20T10:27:08;7.07;;;6.23;;
6376;SDS011;3221;48.858;10.128;2023-05-20T10:29:49;6.73;;;5.93;;
6376;SDS011;3221;48.858;10.128;2023-05-20T10:35:06;6.83;;;5.67;;
6376;SDS011;3221;48.858;10.128;2023-05-20T10:37:42;6.20;;;5.43;;
6376;SDS011;3221;48.858;10.128;2023-05-20T10:40:11;7.13;;;6.00;;
6376;SDS011;3221;48.858;10.128;2023-05-20T10:42:39;7.03;;;5.73;;
6376;SDS011;3221;48.858;10.128;2023-05-20T10:45:08;6.83;;;6.13;;
6376;SDS011;3221;48.858;10.128;2023-05-20T10:47:35;7.47;;;6.20;;
6376;SDS011;3221;48.858;10.128;2023-05-20T10:50:07;7.40;;;5.97;;
6376;SDS011;3221;48.858;10.128;2023-05-20T10:52:51;6.10;;;5.50;;
6376;SDS011;3221;48.858;10.128;2023-05-20T10:55:18;6.53;;;5.77;;
6376;SDS011;3221;48.858;10.128;2023-05-20T10:57:47;5.70;;;5.10;;
6376;SDS011;3221;48.858;10.128;2023-05-20T11:00:14;8.23;;;5.83;;
6376;SDS011;3221;48.858;10.128;2023-05-20T11:02:41;7.30;;;5.87;;
6376;SDS011;3221;48.858;10.128;2023-05-20T11:05:10;6.70;;;6.00;;
6376;SDS011;3221;48.858;10.128;2023-05-20T11:07:38;7.20;;;6.23;;
6376;SDS011;3221;48.858;10.128;2023-05-20T11:10:06;6.57;;;5.97;;
6376;SDS011;3221;48.858;10.128;2023-05-20T11:12:35;7.10;;;6.33;;
6376;SDS011;3221;48.858;10.128;2023-05-20T11:15:02;6.80;;;6.10;;
6376;SDS011;3221;48.858;10.128;2023-05-20T11:17:29;6.40;;;5.80;;
6376;SDS011;3221;48.858;10.128;2023-05-20T11:19:56;6.93;;;6.23;;
6376;SDS011;3221;48.858;10.128;2023-05-20T11:22:26;7.10;;;6.00;;
6376;SDS011;3221;48.858;10.128;2023-05-20T11:24:53;6.53;;;5.70;;
6376;SDS011;3221;48.858;10.128;2023-05-20T11:27:20;6.40;;;5.33;;
6376;SDS011;3221;48.858;10.128;2023-05-20T11:29:48;5.70;;;5.20;;
6376;SDS011;3221;48.858;10.128;2023-05-20T11:32:18;10.10;;;5.83;;
6376;SDS011;3221;48.858;10.128;2023-05-20T11:34:49;5.93;;;5.37;;
6376;SDS011;3221;48.858;10.128;2023-05-20T11:37:18;6.27;;;5.27;;
6376;SDS011;3221;48.858;10.128;2023-05-20T11:39:45;5.93;;;5.27;;
6376;SDS011;3221;48.858;10.128;2023-05-20T11:42:13;6.27;;;4.90;;
6376;SDS011;3221;48.858;10.128;2023-05-20T11:44:44;5.27;;;4.77;;
6376;SDS011;3221;48.858;10.128;2023-05-20T11:47:11;5.97;;;4.80;;
6376;SDS011;3221;48.858;10.128;2023-05-20T11:49:39;7.13;;;5.37;;
6376;SDS011;3221;48.858;10.128;2023-05-20T11:52:07;6.00;;;5.17;;
6376;SDS011;3221;48.858;10.128;2023-05-20T11:54:36;5.80;;;5.20;;
6376;SDS011;3221;48.858;10.128;2023-05-20T11:57:03;5.33;;;4.83;;
6376;SDS011;3221;48.858;10.128;2023-05-20T11:59:32;5.53;;;5.03;;
6376;SDS011;3221;48.858;10.128;2023-05-20T12:01:59;5.60;;;4.60;;
6376;SDS011;3221;48.858;10.128;2023-05-20T12:04:26;5.40;;;4.90;;
6376;SDS011;3221;48.858;10.128;2023-05-20T12:06:53;5.43;;;4.83;;
6376;SDS011;3221;48.858;10.128;2023-05-20T12:09:21;6.07;;;5.03;;
6376;SDS011;3221;48.858;10.128;2023-05-20T12:11:48;7.63;;;5.60;;
6376;SDS011;3221;48.858;10.128;2023-05-20T12:14:16;5.70;;;5.20;;
6376;SDS011;3221;48.858;10.128;2023-05-20T12:16:43;6.03;;;5.40;;
6376;SDS011;3221;48.858;10.128;2023-05-20T12:19:09;6.00;;;5.33;;
6376;SDS011;3221;48.858;10.128;2023-05-20T12:21:36;6.17;;;5.57;;
6376;SDS011;3221;48.858;10.128;2023-05-20T12:24:03;9.27;;;6.33;;
6376;SDS011;3221;48.858;10.128;2023-05-20T12:26:32;6.87;;;5.60;;
6376;SDS011;3221;48.858;10.128;2023-05-20T12:29:00;5.47;;;4.97;;
6376;SDS011;3221;48.858;10.128;2023-05-20T12:31:27;5.30;;;4.60;;
6376;SDS011;3221;48.858;10.128;2023-05-20T12:33:56;5.67;;;4.30;;
6376;SDS011;3221;48.858;10.128;2023-05-20T12:36:23;5.80;;;5.00;;
6376;SDS011;3221;48.858;10.128;2023-05-20T12:38:50;6.50;;;5.00;;
6376;SDS011;3221;48.858;10.128;2023-05-20T12:41:17;7.07;;;4.70;;
6376;SDS011;3221;48.858;10.128;2023-05-20T12:43:44;5.20;;;4.70;;
6376;SDS011;3221;48.858;10.128;2023-05-20T12:46:10;6.37;;;5.00;;
6376;SDS011;3221;48.858;10.128;2023-05-20T12:48:37;5.33;;;4.83;;
6376;SDS011;3221;48.858;10.128;2023-05-20T12:51:07;5.43;;;4.90;;
6376;SDS011;3221;48.858;10.128;2023-05-20T12:53:34;12.33;;;5.70;;
6376;SDS011;3221;48.858;10.128;2023-05-20T12:56:01;5.63;;;5.07;;
6376;SDS011;3221;48.858;10.128;2023-05-20T12:58:30;6.47;;;5.40;;
6376;SDS011;3221;48.858;10.128;2023-05-20T13:00:57;11.17;;;5.80;;
6376;SDS011;3221;48.858;10.128;2023-05-20T13:03:24;8.80;;;5.70;;
6376;SDS011;3221;48.858;10.128;2023-05-20T13:05:51;19.60;;;6.37;;
6376;SDS011;3221;48.858;10.128;2023-05-20T13:08:18;6.33;;;5.70;;
6376;SDS011;3221;48.858;10.128;2023-05-20T13:10:45;9.53;;;5.50;;
6376;SDS011;3221;48.858;10.128;2023-05-20T13:13:53;12.23;;;5.43;;
6376;SDS011;3221;48.858;10.128;2023-05-20T13:16:21;6.67;;;5.47;;
6376;SDS011;3221;48.858;10.128;2023-05-20T13:18:48;6.30;;;4.87;;
6376;SDS011;3221;48.858;10.128;2023-05-20T13:21:16;6.17;;;4.97;;
6376;SDS011;3221;48.858;10.128;2023-05-20T13:23:43;7.63;;;5.00;;
6376;SDS011;3221;48.858;10.128;2023-05-20T13:26:10;11.83;;;5.77;;
6376;SDS011;3221;48.858;10.128;2023-05-20T13:28:37;7.87;;;5.03;;
6376;SDS011;3221;48.858;10.128;2023-05-20T13:31:04;7.27;;;5.27;;
6376;SDS011;3221;48.858;10.128;2023-05-20T13:33:34;7.60;;;5.53;;
6376;SDS011;3221;48.858;10.128;2023-05-20T13:36:01;9.23;;;5.50;;
6376;SDS011;3221;48.858;10.128;2023-05-20T13:38:28;9.17;;;5.77;;
6376;SDS011;3221;48.858;10.128;2023-05-20T13:40:55;5.93;;;5.00;;
6376;SDS011;3221;48.858;10.128;2023-05-20T13:43:24;6.27;;;5.67;;
6376;SDS011;3221;48.858;10.128;2023-05-20T13:45:54;5.80;;;5.20;;
6376;SDS011;3221;48.858;10.128;2023-05-20T13:48:21;7.10;;;5.30;;
6376;SDS011;3221;48.858;10.128;2023-05-20T13:50:48;5.83;;;5.27;;
6376;SDS011;3221;48.858;10.128;2023-05-20T13:53:15;6.10;;;5.40;;
6376;SDS011;3221;48.858;10.128;2023-05-20T13:55:42;7.47;;;5.23;;
6376;SDS011;3221;48.858;10.128;2023-05-20T13:58:09;7.83;;;5.70;;
6376;SDS011;3221;48.858;10.128;2023-05-20T14:00:36;7.07;;;5.30;;
6376;SDS011;3221;48.858;10.128;2023-05-20T14:03:04;6.20;;;5.43;;
6376;SDS011;3221;48.858;10.128;2023-05-20T14:05:34;5.80;;;5.17;;
6376;SDS011;3221;48.858;10.128;2023-05-20T14:08:01;6.60;;;5.93;;
6376;SDS011;3221;48.858;10.128;2023-05-20T14:10:28;44.33;;;12.73;;
6376;SDS011;3221;48.858;10.128;2023-05-20T14:12:58;7.80;;;6.27;;
6376;SDS011;3221;48.858;10.128;2023-05-20T14:15:27;13.07;;;6.37;;
6376;SDS011;3221;48.858;10.128;2023-05-20T14:17:57;7.13;;;5.40;;
6376;SDS011;3221;48.858;10.128;2023-05-20T14:20:24;7.27;;;5.57;;
6376;SDS011;3221;48.858;10.128;2023-05-20T14:22:51;5.57;;;4.90;;
6376;SDS011;3221;48.858;10.128;2023-05-20T14:25:18;8.77;;;5.27;;
6376;SDS011;3221;48.858;10.128;2023-05-20T14:27:45;7.70;;;4.73;;
6376;SDS011;3221;48.858;10.128;2023-05-20T14:30:12;6.60;;;4.83;;
6376;SDS011;3221;48.858;10.128;2023-05-20T14:32:39;6.93;;;4.97;;
6376;SDS011;3221;48.858;10.128;2023-05-20T14:35:06;5.50;;;5.00;;
6376;SDS011;3221;48.858;10.128;2023-05-20T14:37:34;5.97;;;4.80;;
6376;SDS011;3221;48.858;10.128;2023-05-20T14:40:02;5.23;;;4.70;;
6376;SDS011;3221;48.858;10.128;2023-05-20T14:42:30;4.93;;;4.50;;
6376;SDS011;3221;48.858;10.128;2023-05-20T14:44:58;6.63;;;4.67;;
6376;SDS011;3221;48.858;10.128;2023-05-20T14:47:24;7.07;;;4.10;;
6376;SDS011;3221;48.858;10.128;2023-05-20T14:49:52;7.03;;;4.50;;
6376;SDS011;3221;48.858;10.128;2023-05-20T14:52:19;5.07;;;4.27;;
6376;SDS011;3221;48.858;10.128;2023-05-20T14:54:46;11.73;;;4.73;;
6376;SDS011;3221;48.858;10.128;2023-05-20T14:57:13;8.30;;;4.60;;
6376;SDS011;3221;48.858;10.128;2023-05-20T14:59:41;12.93;;;5.17;;
6376;SDS011;3221;48.858;10.128;2023-05-20T15:02:08;5.70;;;4.60;;
6376;SDS011;3221;48.858;10.128;2023-05-20T15:04:37;5.37;;;4.87;;
6376;SDS011;3221;48.858;10.128;2023-05-20T15:07:05;5.13;;;4.67;;
6376;SDS011;3221;48.858;10.128;2023-05-20T15:09:32;6.33;;;5.07;;
6376;SDS011;3221;48.858;10.128;2023-05-20T15:12:00;7.73;;;5.17;;
6376;SDS011;3221;48.858;10.128;2023-05-20T15:14:27;6.23;;;5.27;;
6376;SDS011;3221;48.858;10.128;2023-05-20T15:16:54;4.87;;;4.47;;
6376;SDS011;3221;48.858;10.128;2023-05-20T15:19:21;5.83;;;5.07;;